sensor_id;sensor_type;location;lat;lon;timestamp;P1;durP1;ratioP1;P2;durP2;ratioP2
16099;SDS011;8154;50.830;12.082;2022-12-18T00:02:44;4.30;;;4.00;;
16099;SDS011;8154;50.830;12.082;2022-12-18T00:05:29;4.28;;;3.97;;
16099;SDS011;8154;50.830;12.082;2022-12-18T00:08:14;4.13;;;3.83;;
16099;SDS011;8154;50.830;12.082;2022-12-18T00:11:08;4.18;;;3.88;;
16099;SDS011;8154;50.830;12.082;2022-12-18T00:13:58;4.13;;;3.83;;
16099;SDS011;8154;50.830;12.082;2022-12-18T00:16:44;4.35;;;4.00;;
16099;SDS011;8154;50.830;12.082;2022-12-18T00:19:30;4.00;;;3.70;;
16099;SDS011;8154;50.830;12.082;2022-12-18T00:22:14;4.70;;;4.30;;
16099;SDS011;8154;50.830;12.082;2022-12-18T00:24:59;4.47;;;4.10;;
16099;SDS011;8154;50.830;12.082;2022-12-18T00:27:44;4.45;;;4.07;;
16099;SDS011;8154;50.830;12.082;2022-12-18T00:30:29;4.43;;;4.05;;
16099;SDS011;8154;50.830;12.082;2022-12-18T00:33:13;4.47;;;4.07;;
16099;SDS011;8154;50.830;12.082;2022-12-18T00:36:09;4.25;;;3.85;;
16099;SDS011;8154;50.830;12.082;2022-12-18T00:38:56;4.57;;;4.18;;
16099;SDS011;8154;50.830;12.082;2022-12-18T00:41:42;4.25;;;3.92;;
16099;SDS011;8154;50.830;12.082;2022-12-18T00:44:44;4.35;;;4.05;;
16099;SDS011;8154;50.830;12.082;2022-12-18T00:47:29;4.65;;;4.25;;
16099;SDS011;8154;50.830;12.082;2022-12-18T00:50:17;4.30;;;3.95;;
16099;SDS011;8154;50.830;12.082;2022-12-18T00:53:03;4.25;;;3.95;;
16099;SDS011;8154;50.830;12.082;2022-12-18T00:55:48;4.40;;;4.00;;
16099;SDS011;8154;50.830;12.082;2022-12-18T00:58:32;4.50;;;4.10;;
16099;SDS011;8154;50.830;12.082;2022-12-18T01:01:17;4.28;;;3.97;;
16099;SDS011;8154;50.830;12.082;2022-12-18T01:04:02;4.50;;;4.10;;
16099;SDS011;8154;50.830;12.082;2022-12-18T01:06:48;4.15;;;3.83;;
16099;SDS011;8154;50.830;12.082;2022-12-18T01:09:32;4.22;;;3.92;;
16099;SDS011;8154;50.830;12.082;2022-12-18T01:12:18;4.20;;;3.90;;
16099;SDS011;8154;50.830;12.082;2022-12-18T01:15:06;4.30;;;4.00;;
16099;SDS011;8154;50.830;12.082;2022-12-18T01:17:53;4.40;;;4.00;;
16099;SDS011;8154;50.830;12.082;2022-12-18T01:20:37;4.25;;;3.90;;
16099;SDS011;8154;50.830;12.082;2022-12-18T01:23:22;4.53;;;4.13;;
16099;SDS011;8154;50.830;12.082;2022-12-18T01:26:08;4.15;;;3.85;;
16099;SDS011;8154;50.830;12.082;2022-12-18T01:28:56;4.43;;;4.03;;
16099;SDS011;8154;50.830;12.082;2022-12-18T01:31:44;4.00;;;3.70;;
16099;SDS011;8154;50.830;12.082;2022-12-18T01:34:29;4.68;;;4.28;;
16099;SDS011;8154;50.830;12.082;2022-12-18T01:37:14;4.20;;;3.90;;
16099;SDS011;8154;50.830;12.082;2022-12-18T01:40:00;4.10;;;3.80;;
16099;SDS011;8154;50.830;12.082;2022-12-18T01:42:51;4.25;;;3.95;;
16099;SDS011;8154;50.830;12.082;2022-12-18T01:45:37;3.80;;;3.50;;
16099;SDS011;8154;50.830;12.082;2022-12-18T01:48:22;4.45;;;4.05;;
16099;SDS011;8154;50.830;12.082;2022-12-18T01:51:07;4.10;;;3.80;;
16099;SDS011;8154;50.830;12.082;2022-12-18T01:53:54;4.32;;;4.03;;
16099;SDS011;8154;50.830;12.082;2022-12-18T01:56:43;4.28;;;3.90;;
16099;SDS011;8154;50.830;12.082;2022-12-18T01:59:28;4.10;;;3.80;;
16099;SDS011;8154;50.830;12.082;2022-12-18T02:02:16;4.03;;;3.72;;
16099;SDS011;8154;50.830;12.082;2022-12-18T02:05:02;3.90;;;3.60;;
16099;SDS011;8154;50.830;12.082;2022-12-18T02:16:52;4.40;;;4.00;;
16099;SDS011;8154;50.830;12.082;2022-12-18T02:23:19;4.07;;;3.78;;
16099;SDS011;8154;50.830;12.082;2022-12-18T02:27:02;4.20;;;3.90;;
16099;SDS011;8154;50.830;12.082;2022-12-18T02:29:49;4.00;;;3.70;;
16099;SDS011;8154;50.830;12.082;2022-12-18T02:32:37;4.57;;;4.18;;
16099;SDS011;8154;50.830;12.082;2022-12-18T02:35:35;4.20;;;3.90;;
16099;SDS011;8154;50.830;12.082;2022-12-18T02:38:21;4.30;;;3.90;;
16099;SDS011;8154;50.830;12.082;2022-12-18T02:41:07;4.20;;;3.80;;
16099;SDS011;8154;50.830;12.082;2022-12-18T02:43:56;4.00;;;3.70;;
16099;SDS011;8154;50.830;12.082;2022-12-18T02:46:52;4.13;;;3.78;;
16099;SDS011;8154;50.830;12.082;2022-12-18T02:55:42;4.20;;;3.90;;
16099;SDS011;8154;50.830;12.082;2022-12-18T02:58:51;4.00;;;3.70;;
16099;SDS011;8154;50.830;12.082;2022-12-18T03:02:48;4.00;;;3.70;;
16099;SDS011;8154;50.830;12.082;2022-12-18T03:05:17;3.83;;;3.53;;
16099;SDS011;8154;50.830;12.082;2022-12-18T03:08:10;4.40;;;4.00;;
16099;SDS011;8154;50.830;12.082;2022-12-18T03:11:01;3.85;;;3.55;;
16099;SDS011;8154;50.830;12.082;2022-12-18T03:13:50;4.03;;;3.72;;
16099;SDS011;8154;50.830;12.082;2022-12-18T03:16:40;4.15;;;3.75;;
16099;SDS011;8154;50.830;12.082;2022-12-18T03:19:27;4.20;;;3.83;;
16099;SDS011;8154;50.830;12.082;2022-12-18T03:22:15;4.07;;;3.75;;
16099;SDS011;8154;50.830;12.082;2022-12-18T03:25:01;3.90;;;3.60;;
16099;SDS011;8154;50.830;12.082;2022-12-18T03:27:48;3.90;;;3.60;;
16099;SDS011;8154;50.830;12.082;2022-12-18T03:30:37;4.47;;;4.07;;
16099;SDS011;8154;50.830;12.082;2022-12-18T03:33:47;3.83;;;3.53;;
16099;SDS011;8154;50.830;12.082;2022-12-18T03:36:37;4.15;;;3.80;;
16099;SDS011;8154;50.830;12.082;2022-12-18T03:39:22;3.95;;;3.65;;
16099;SDS011;8154;50.830;12.082;2022-12-18T03:42:10;3.83;;;3.53;;
16099;SDS011;8154;50.830;12.082;2022-12-18T03:50:53;3.85;;;3.55;;
16099;SDS011;8154;50.830;12.082;2022-12-18T03:56:36;3.92;;;3.63;;
16099;SDS011;8154;50.830;12.082;2022-12-18T03:59:26;3.90;;;3.60;;
16099;SDS011;8154;50.830;12.082;2022-12-18T04:02:13;3.80;;;3.50;;
16099;SDS011;8154;50.830;12.082;2022-12-18T04:05:01;4.07;;;3.78;;
16099;SDS011;8154;50.830;12.082;2022-12-18T04:07:49;4.03;;;3.72;;
16099;SDS011;8154;50.830;12.082;2022-12-18T04:10:39;3.90;;;3.60;;
16099;SDS011;8154;50.830;12.082;2022-12-18T04:13:28;3.50;;;3.30;;
16099;SDS011;8154;50.830;12.082;2022-12-18T04:16:17;4.10;;;3.80;;
16099;SDS011;8154;50.830;12.082;2022-12-18T04:19:02;3.63;;;3.33;;
16099;SDS011;8154;50.830;12.082;2022-12-18T04:21:48;3.80;;;3.50;;
16099;SDS011;8154;50.830;12.082;2022-12-18T04:24:35;3.80;;;3.50;;
16099;SDS011;8154;50.830;12.082;2022-12-18T04:27:19;3.80;;;3.50;;
16099;SDS011;8154;50.830;12.082;2022-12-18T04:30:03;3.90;;;3.60;;
16099;SDS011;8154;50.830;12.082;2022-12-18T04:32:48;3.92;;;3.63;;
16099;SDS011;8154;50.830;12.082;2022-12-18T04:35:33;3.80;;;3.50;;
16099;SDS011;8154;50.830;12.082;2022-12-18T04:38:17;3.92;;;3.63;;
16099;SDS011;8154;50.830;12.082;2022-12-18T04:41:02;3.63;;;3.33;;
16099;SDS011;8154;50.830;12.082;2022-12-18T04:43:47;3.70;;;3.40;;
16099;SDS011;8154;50.830;12.082;2022-12-18T04:46:37;3.78;;;3.47;;
16099;SDS011;8154;50.830;12.082;2022-12-18T04:49:23;3.70;;;3.40;;
16099;SDS011;8154;50.830;12.082;2022-12-18T04:52:08;3.70;;;3.40;;
16099;SDS011;8154;50.830;12.082;2022-12-18T04:54:52;3.70;;;3.40;;
16099;SDS011;8154;50.830;12.082;2022-12-18T04:57:37;3.78;;;3.47;;
16099;SDS011;8154;50.830;12.082;2022-12-18T05:00:22;3.80;;;3.50;;
16099;SDS011;8154;50.830;12.082;2022-12-18T05:03:07;3.50;;;3.20;;
16099;SDS011;8154;50.830;12.082;2022-12-18T05:05:57;3.58;;;3.28;;
16099;SDS011;8154;50.830;12.082;2022-12-18T05:08:41;3.45;;;3.15;;
16099;SDS011;8154;50.830;12.082;2022-12-18T05:11:25;3.70;;;3.40;;
16099;SDS011;8154;50.830;12.082;2022-12-18T05:14:10;3.70;;;3.40;;
16099;SDS011;8154;50.830;12.082;2022-12-18T05:16:55;3.67;;;3.38;;
16099;SDS011;8154;50.830;12.082;2022-12-18T05:19:39;3.60;;;3.30;;
16099;SDS011;8154;50.830;12.082;2022-12-18T05:25:37;3.60;;;3.30;;
16099;SDS011;8154;50.830;12.082;2022-12-18T05:28:22;3.70;;;3.40;;
16099;SDS011;8154;50.830;12.082;2022-12-18T05:31:08;3.30;;;3.10;;
16099;SDS011;8154;50.830;12.082;2022-12-18T05:33:54;3.40;;;3.10;;
16099;SDS011;8154;50.830;12.082;2022-12-18T05:36:39;3.53;;;3.22;;
16099;SDS011;8154;50.830;12.082;2022-12-18T05:39:23;3.60;;;3.30;;
16099;SDS011;8154;50.830;12.082;2022-12-18T05:42:08;3.58;;;3.28;;
16099;SDS011;8154;50.830;12.082;2022-12-18T05:44:55;3.22;;;3.03;;
16099;SDS011;8154;50.830;12.082;2022-12-18T05:47:40;3.60;;;3.30;;
16099;SDS011;8154;50.830;12.082;2022-12-18T05:50:26;3.35;;;3.15;;
16099;SDS011;8154;50.830;12.082;2022-12-18T05:53:11;3.72;;;3.42;;
16099;SDS011;8154;50.830;12.082;2022-12-18T05:55:59;3.53;;;3.22;;
16099;SDS011;8154;50.830;12.082;2022-12-18T05:58:47;3.58;;;3.28;;
16099;SDS011;8154;50.830;12.082;2022-12-18T06:01:34;3.20;;;3.00;;
16099;SDS011;8154;50.830;12.082;2022-12-18T06:04:19;3.33;;;3.03;;
16099;SDS011;8154;50.830;12.082;2022-12-18T06:07:03;3.50;;;3.20;;
16099;SDS011;8154;50.830;12.082;2022-12-18T06:09:47;3.30;;;3.10;;
16099;SDS011;8154;50.830;12.082;2022-12-18T06:12:32;3.45;;;3.20;;
16099;SDS011;8154;50.830;12.082;2022-12-18T06:15:23;3.33;;;3.05;;
16099;SDS011;8154;50.830;12.082;2022-12-18T06:18:13;3.50;;;3.20;;
16099;SDS011;8154;50.830;12.082;2022-12-18T06:21:00;3.05;;;2.85;;
16099;SDS011;8154;50.830;12.082;2022-12-18T06:23:46;3.47;;;3.17;;
16099;SDS011;8154;50.830;12.082;2022-12-18T06:26:30;3.33;;;3.03;;
16099;SDS011;8154;50.830;12.082;2022-12-18T06:29:15;3.42;;;3.15;;
16099;SDS011;8154;50.830;12.082;2022-12-18T06:31:59;3.38;;;3.17;;
16099;SDS011;8154;50.830;12.082;2022-12-18T06:34:43;3.25;;;3.05;;
16099;SDS011;8154;50.830;12.082;2022-12-18T06:37:28;3.30;;;3.00;;
16099;SDS011;8154;50.830;12.082;2022-12-18T06:40:16;3.15;;;2.90;;
16099;SDS011;8154;50.830;12.082;2022-12-18T06:43:16;3.20;;;3.00;;
16099;SDS011;8154;50.830;12.082;2022-12-18T06:46:01;3.13;;;2.92;;
16099;SDS011;8154;50.830;12.082;2022-12-18T06:48:54;3.72;;;3.17;;
16099;SDS011;8154;50.830;12.082;2022-12-18T06:51:46;3.33;;;3.10;;
16099;SDS011;8154;50.830;12.082;2022-12-18T06:54:32;3.10;;;2.90;;
16099;SDS011;8154;50.830;12.082;2022-12-18T06:57:16;3.30;;;3.03;;
16099;SDS011;8154;50.830;12.082;2022-12-18T07:00:00;3.50;;;3.22;;
16099;SDS011;8154;50.830;12.082;2022-12-18T07:02:46;3.10;;;2.90;;
16099;SDS011;8154;50.830;12.082;2022-12-18T07:05:31;3.20;;;3.00;;
16099;SDS011;8154;50.830;12.082;2022-12-18T07:08:15;3.10;;;2.90;;
16099;SDS011;8154;50.830;12.082;2022-12-18T07:11:02;3.15;;;2.90;;
16099;SDS011;8154;50.830;12.082;2022-12-18T07:13:48;3.10;;;2.90;;
16099;SDS011;8154;50.830;12.082;2022-12-18T07:16:33;3.40;;;3.10;;
16099;SDS011;8154;50.830;12.082;2022-12-18T07:19:17;3.42;;;3.13;;
16099;SDS011;8154;50.830;12.082;2022-12-18T07:22:04;2.97;;;2.78;;
16099;SDS011;8154;50.830;12.082;2022-12-18T07:24:48;3.25;;;2.95;;
16099;SDS011;8154;50.830;12.082;2022-12-18T07:27:32;3.22;;;2.90;;
16099;SDS011;8154;50.830;12.082;2022-12-18T07:30:17;3.00;;;2.80;;
16099;SDS011;8154;50.830;12.082;2022-12-18T07:33:03;3.00;;;2.80;;
16099;SDS011;8154;50.830;12.082;2022-12-18T07:35:47;3.45;;;3.15;;
16099;SDS011;8154;50.830;12.082;2022-12-18T07:38:32;2.95;;;2.75;;
16099;SDS011;8154;50.830;12.082;2022-12-18T07:41:21;3.38;;;3.10;;
16099;SDS011;8154;50.830;12.082;2022-12-18T07:44:05;3.10;;;2.90;;
16099;SDS011;8154;50.830;12.082;2022-12-18T07:46:56;3.00;;;2.80;;
16099;SDS011;8154;50.830;12.082;2022-12-18T07:49:54;3.10;;;2.90;;
16099;SDS011;8154;50.830;12.082;2022-12-18T07:52:44;3.13;;;2.92;;
16099;SDS011;8154;50.830;12.082;2022-12-18T07:55:29;3.45;;;3.15;;
16099;SDS011;8154;50.830;12.082;2022-12-18T07:58:15;3.50;;;3.20;;
16099;SDS011;8154;50.830;12.082;2022-12-18T08:01:11;3.20;;;2.95;;
16099;SDS011;8154;50.830;12.082;2022-12-18T08:03:57;3.30;;;3.00;;
16099;SDS011;8154;50.830;12.082;2022-12-18T08:06:43;3.10;;;2.90;;
16099;SDS011;8154;50.830;12.082;2022-12-18T08:09:31;3.03;;;2.83;;
16099;SDS011;8154;50.830;12.082;2022-12-18T08:12:16;3.30;;;3.10;;
16099;SDS011;8154;50.830;12.082;2022-12-18T08:15:00;3.30;;;3.10;;
16099;SDS011;8154;50.830;12.082;2022-12-18T08:17:45;3.50;;;3.20;;
16099;SDS011;8154;50.830;12.082;2022-12-18T08:20:32;3.42;;;3.13;;
16099;SDS011;8154;50.830;12.082;2022-12-18T08:23:17;3.40;;;3.10;;
16099;SDS011;8154;50.830;12.082;2022-12-18T08:26:02;3.33;;;3.05;;
16099;SDS011;8154;50.830;12.082;2022-12-18T08:28:46;3.13;;;2.92;;
16099;SDS011;8154;50.830;12.082;2022-12-18T08:31:36;3.55;;;3.25;;
16099;SDS011;8154;50.830;12.082;2022-12-18T08:34:20;3.13;;;2.92;;
16099;SDS011;8154;50.830;12.082;2022-12-18T08:37:06;3.10;;;2.90;;
16099;SDS011;8154;50.830;12.082;2022-12-18T08:39:54;3.20;;;2.90;;
16099;SDS011;8154;50.830;12.082;2022-12-18T08:42:40;3.25;;;2.95;;
16099;SDS011;8154;50.830;12.082;2022-12-18T08:45:43;3.28;;;3.08;;
16099;SDS011;8154;50.830;12.082;2022-12-18T08:48:29;3.33;;;3.03;;
16099;SDS011;8154;50.830;12.082;2022-12-18T08:51:15;2.97;;;2.78;;
16099;SDS011;8154;50.830;12.082;2022-12-18T08:54:00;3.30;;;3.00;;
16099;SDS011;8154;50.830;12.082;2022-12-18T08:56:48;3.40;;;3.10;;
16099;SDS011;8154;50.830;12.082;2022-12-18T08:59:36;3.08;;;2.88;;
16099;SDS011;8154;50.830;12.082;2022-12-18T09:02:20;3.08;;;2.88;;
16099;SDS011;8154;50.830;12.082;2022-12-18T09:05:08;3.65;;;3.35;;
16099;SDS011;8154;50.830;12.082;2022-12-18T09:07:53;3.42;;;3.13;;
16099;SDS011;8154;50.830;12.082;2022-12-18T09:10:42;3.40;;;3.10;;
16099;SDS011;8154;50.830;12.082;2022-12-18T09:13:27;2.90;;;2.70;;
16099;SDS011;8154;50.830;12.082;2022-12-18T09:16:14;3.10;;;2.90;;
16099;SDS011;8154;50.830;12.082;2022-12-18T09:18:59;3.50;;;3.20;;
16099;SDS011;8154;50.830;12.082;2022-12-18T09:21:45;3.10;;;2.90;;
16099;SDS011;8154;50.830;12.082;2022-12-18T09:24:30;3.13;;;2.92;;
16099;SDS011;8154;50.830;12.082;2022-12-18T09:27:17;2.92;;;2.72;;
16099;SDS011;8154;50.830;12.082;2022-12-18T09:30:09;3.20;;;2.92;;
16099;SDS011;8154;50.830;12.082;2022-12-18T09:32:56;2.97;;;2.78;;
16099;SDS011;8154;50.830;12.082;2022-12-18T09:35:46;3.00;;;2.80;;
16099;SDS011;8154;50.830;12.082;2022-12-18T09:38:36;3.55;;;3.25;;
16099;SDS011;8154;50.830;12.082;2022-12-18T09:47:34;3.13;;;2.92;;
16099;SDS011;8154;50.830;12.082;2022-12-18T09:53:12;3.40;;;3.10;;
16099;SDS011;8154;50.830;12.082;2022-12-18T09:56:03;3.00;;;2.80;;
16099;SDS011;8154;50.830;12.082;2022-12-18T09:59:00;3.25;;;2.95;;
16099;SDS011;8154;50.830;12.082;2022-12-18T10:01:46;3.30;;;3.10;;
16099;SDS011;8154;50.830;12.082;2022-12-18T10:04:31;3.13;;;2.92;;
16099;SDS011;8154;50.830;12.082;2022-12-18T10:10:53;3.22;;;3.03;;
16099;SDS011;8154;50.830;12.082;2022-12-18T10:13:31;3.20;;;3.00;;
16099;SDS011;8154;50.830;12.082;2022-12-18T10:16:26;3.28;;;3.00;;
16099;SDS011;8154;50.830;12.082;2022-12-18T10:22:48;3.05;;;2.85;;
16099;SDS011;8154;50.830;12.082;2022-12-18T10:26:02;3.13;;;2.92;;
16099;SDS011;8154;50.830;12.082;2022-12-18T10:28:51;3.10;;;2.90;;
16099;SDS011;8154;50.830;12.082;2022-12-18T10:31:38;3.10;;;2.90;;
16099;SDS011;8154;50.830;12.082;2022-12-18T10:34:23;3.00;;;2.80;;
16099;SDS011;8154;50.830;12.082;2022-12-18T10:37:10;3.10;;;2.90;;
16099;SDS011;8154;50.830;12.082;2022-12-18T10:40:08;2.95;;;2.75;;
16099;SDS011;8154;50.830;12.082;2022-12-18T10:43:09;3.00;;;2.80;;
16099;SDS011;8154;50.830;12.082;2022-12-18T10:48:54;3.00;;;2.80;;
16099;SDS011;8154;50.830;12.082;2022-12-18T10:51:44;3.00;;;2.80;;
16099;SDS011;8154;50.830;12.082;2022-12-18T10:54:30;3.25;;;3.05;;
16099;SDS011;8154;50.830;12.082;2022-12-18T10:57:29;2.95;;;2.75;;
16099;SDS011;8154;50.830;12.082;2022-12-18T11:00:41;3.03;;;2.83;;
16099;SDS011;8154;50.830;12.082;2022-12-18T11:03:30;3.13;;;2.83;;
16099;SDS011;8154;50.830;12.082;2022-12-18T11:06:21;3.03;;;2.83;;
16099;SDS011;8154;50.830;12.082;2022-12-18T11:09:19;3.10;;;2.90;;
16099;SDS011;8154;50.830;12.082;2022-12-18T11:12:18;2.92;;;2.72;;
16099;SDS011;8154;50.830;12.082;2022-12-18T11:15:13;3.05;;;2.85;;
16099;SDS011;8154;50.830;12.082;2022-12-18T11:18:04;3.03;;;2.83;;
16099;SDS011;8154;50.830;12.082;2022-12-18T11:20:50;3.05;;;2.85;;
16099;SDS011;8154;50.830;12.082;2022-12-18T11:23:37;3.40;;;3.10;;
16099;SDS011;8154;50.830;12.082;2022-12-18T11:26:37;3.10;;;2.90;;
16099;SDS011;8154;50.830;12.082;2022-12-18T11:29:26;3.30;;;3.00;;
16099;SDS011;8154;50.830;12.082;2022-12-18T11:38:26;3.22;;;3.03;;
16099;SDS011;8154;50.830;12.082;2022-12-18T11:44:38;3.00;;;2.80;;
16099;SDS011;8154;50.830;12.082;2022-12-18T11:47:42;2.95;;;2.75;;
16099;SDS011;8154;50.830;12.082;2022-12-18T11:50:55;3.22;;;2.92;;
16099;SDS011;8154;50.830;12.082;2022-12-18T11:53:43;2.90;;;2.70;;
16099;SDS011;8154;50.830;12.082;2022-12-18T11:56:37;2.80;;;2.60;;
16099;SDS011;8154;50.830;12.082;2022-12-18T11:59:53;2.97;;;2.78;;
16099;SDS011;8154;50.830;12.082;2022-12-18T12:06:03;3.00;;;2.80;;
16099;SDS011;8154;50.830;12.082;2022-12-18T12:21:32;3.08;;;2.80;;
16099;SDS011;8154;50.830;12.082;2022-12-18T12:30:16;3.15;;;2.85;;
16099;SDS011;8154;50.830;12.082;2022-12-18T12:36:20;3.00;;;2.80;;
16099;SDS011;8154;50.830;12.082;2022-12-18T12:39:27;2.80;;;2.60;;
16099;SDS011;8154;50.830;12.082;2022-12-18T12:42:41;2.80;;;2.60;;
16099;SDS011;8154;50.830;12.082;2022-12-18T12:45:48;3.00;;;2.80;;
16099;SDS011;8154;50.830;12.082;2022-12-18T12:49:15;2.90;;;2.70;;
16099;SDS011;8154;50.830;12.082;2022-12-18T12:52:06;2.83;;;2.63;;
16099;SDS011;8154;50.830;12.082;2022-12-18T12:55:04;3.03;;;2.83;;
16099;SDS011;8154;50.830;12.082;2022-12-18T13:07:48;2.90;;;2.70;;
16099;SDS011;8154;50.830;12.082;2022-12-18T13:10:39;3.15;;;2.85;;
16099;SDS011;8154;50.830;12.082;2022-12-18T13:13:27;3.00;;;2.80;;
16099;SDS011;8154;50.830;12.082;2022-12-18T13:16:36;2.90;;;2.70;;
16099;SDS011;8154;50.830;12.082;2022-12-18T13:19:21;2.75;;;2.55;;
16099;SDS011;8154;50.830;12.082;2022-12-18T13:22:27;2.72;;;2.53;;
16099;SDS011;8154;50.830;12.082;2022-12-18T13:25:35;3.05;;;2.85;;
16099;SDS011;8154;50.830;12.082;2022-12-18T13:34:30;2.95;;;2.72;;
16099;SDS011;8154;50.830;12.082;2022-12-18T13:40:53;2.70;;;2.50;;
16099;SDS011;8154;50.830;12.082;2022-12-18T13:46:30;3.00;;;2.80;;
16099;SDS011;8154;50.830;12.082;2022-12-18T13:49:38;2.80;;;2.60;;
16099;SDS011;8154;50.830;12.082;2022-12-18T13:52:27;3.00;;;2.80;;
16099;SDS011;8154;50.830;12.082;2022-12-18T13:55:18;2.95;;;2.75;;
16099;SDS011;8154;50.830;12.082;2022-12-18T13:58:04;2.92;;;2.72;;
16099;SDS011;8154;50.830;12.082;2022-12-18T14:00:50;2.95;;;2.75;;
16099;SDS011;8154;50.830;12.082;2022-12-18T14:03:37;3.58;;;2.67;;
16099;SDS011;8154;50.830;12.082;2022-12-18T14:06:23;2.90;;;2.70;;
16099;SDS011;8154;50.830;12.082;2022-12-18T14:09:10;2.75;;;2.55;;
16099;SDS011;8154;50.830;12.082;2022-12-18T14:12:31;3.22;;;2.80;;
16099;SDS011;8154;50.830;12.082;2022-12-18T14:15:40;2.95;;;2.70;;
16099;SDS011;8154;50.830;12.082;2022-12-18T14:21:39;3.00;;;2.70;;
16099;SDS011;8154;50.830;12.082;2022-12-18T14:24:26;3.00;;;2.70;;
16099;SDS011;8154;50.830;12.082;2022-12-18T14:27:19;3.22;;;2.65;;
16099;SDS011;8154;50.830;12.082;2022-12-18T14:30:23;2.90;;;2.70;;
16099;SDS011;8154;50.830;12.082;2022-12-18T14:36:13;2.80;;;2.60;;
16099;SDS011;8154;50.830;12.082;2022-12-18T14:39:04;2.90;;;2.70;;
16099;SDS011;8154;50.830;12.082;2022-12-18T14:41:49;3.30;;;2.90;;
16099;SDS011;8154;50.830;12.082;2022-12-18T14:44:39;2.83;;;2.60;;
16099;SDS011;8154;50.830;12.082;2022-12-18T14:47:24;3.00;;;2.80;;
16099;SDS011;8154;50.830;12.082;2022-12-18T14:50:12;2.90;;;2.60;;
16099;SDS011;8154;50.830;12.082;2022-12-18T14:52:58;3.08;;;2.60;;
16099;SDS011;8154;50.830;12.082;2022-12-18T14:55:45;2.80;;;2.60;;
16099;SDS011;8154;50.830;12.082;2022-12-18T14:58:32;2.55;;;2.35;;
16099;SDS011;8154;50.830;12.082;2022-12-18T15:01:39;2.80;;;2.60;;
16099;SDS011;8154;50.830;12.082;2022-12-18T15:04:37;3.22;;;2.92;;
16099;SDS011;8154;50.830;12.082;2022-12-18T15:07:24;2.80;;;2.60;;
16099;SDS011;8154;50.830;12.082;2022-12-18T15:10:23;2.95;;;2.60;;
16099;SDS011;8154;50.830;12.082;2022-12-18T15:13:15;3.13;;;2.83;;
16099;SDS011;8154;50.830;12.082;2022-12-18T15:16:12;2.70;;;2.50;;
16099;SDS011;8154;50.830;12.082;2022-12-18T15:19:00;2.75;;;2.50;;
16099;SDS011;8154;50.830;12.082;2022-12-18T15:21:46;2.88;;;2.67;;
16099;SDS011;8154;50.830;12.082;2022-12-18T15:24:31;2.88;;;2.67;;
16099;SDS011;8154;50.830;12.082;2022-12-18T15:27:35;2.70;;;2.50;;
16099;SDS011;8154;50.830;12.082;2022-12-18T15:30:22;2.50;;;2.30;;
16099;SDS011;8154;50.830;12.082;2022-12-18T15:33:35;2.80;;;2.60;;
16099;SDS011;8154;50.830;12.082;2022-12-18T15:36:23;2.90;;;2.70;;
16099;SDS011;8154;50.830;12.082;2022-12-18T15:39:10;2.90;;;2.70;;
16099;SDS011;8154;50.830;12.082;2022-12-18T15:41:58;2.78;;;2.58;;
16099;SDS011;8154;50.830;12.082;2022-12-18T15:45:04;2.70;;;2.50;;
16099;SDS011;8154;50.830;12.082;2022-12-18T15:47:50;2.80;;;2.60;;
16099;SDS011;8154;50.830;12.082;2022-12-18T15:50:35;2.60;;;2.40;;
16099;SDS011;8154;50.830;12.082;2022-12-18T15:53:21;2.85;;;2.65;;
16099;SDS011;8154;50.830;12.082;2022-12-18T15:56:17;2.80;;;2.60;;
16099;SDS011;8154;50.830;12.082;2022-12-18T15:59:21;2.78;;;2.58;;
16099;SDS011;8154;50.830;12.082;2022-12-18T16:02:13;3.15;;;2.60;;
16099;SDS011;8154;50.830;12.082;2022-12-18T16:05:05;2.70;;;2.50;;
16099;SDS011;8154;50.830;12.082;2022-12-18T16:08:13;2.58;;;2.38;;
16099;SDS011;8154;50.830;12.082;2022-12-18T16:10:59;2.58;;;2.38;;
16099;SDS011;8154;50.830;12.082;2022-12-18T16:13:47;2.90;;;2.70;;
16099;SDS011;8154;50.830;12.082;2022-12-18T16:16:33;2.63;;;2.42;;
16099;SDS011;8154;50.830;12.082;2022-12-18T16:19:18;2.88;;;2.67;;
16099;SDS011;8154;50.830;12.082;2022-12-18T16:22:05;2.55;;;2.35;;
16099;SDS011;8154;50.830;12.082;2022-12-18T16:25:00;2.60;;;2.40;;
16099;SDS011;8154;50.830;12.082;2022-12-18T16:27:45;2.90;;;2.70;;
16099;SDS011;8154;50.830;12.082;2022-12-18T16:30:32;2.75;;;2.55;;
16099;SDS011;8154;50.830;12.082;2022-12-18T16:33:17;2.65;;;2.45;;
16099;SDS011;8154;50.830;12.082;2022-12-18T16:36:02;2.60;;;2.40;;
16099;SDS011;8154;50.830;12.082;2022-12-18T16:38:51;2.72;;;2.53;;
16099;SDS011;8154;50.830;12.082;2022-12-18T16:41:36;2.97;;;2.58;;
16099;SDS011;8154;50.830;12.082;2022-12-18T16:44:20;2.78;;;2.58;;
16099;SDS011;8154;50.830;12.082;2022-12-18T16:47:12;2.78;;;2.58;;
16099;SDS011;8154;50.830;12.082;2022-12-18T16:50:00;2.63;;;2.42;;
16099;SDS011;8154;50.830;12.082;2022-12-18T16:52:45;2.70;;;2.50;;
16099;SDS011;8154;50.830;12.082;2022-12-18T16:55:32;2.60;;;2.40;;
16099;SDS011;8154;50.830;12.082;2022-12-18T16:58:18;2.55;;;2.35;;
16099;SDS011;8154;50.830;12.082;2022-12-18T17:01:06;2.90;;;2.70;;
16099;SDS011;8154;50.830;12.082;2022-12-18T17:04:01;2.50;;;2.30;;
16099;SDS011;8154;50.830;12.082;2022-12-18T17:06:54;2.97;;;2.78;;
16099;SDS011;8154;50.830;12.082;2022-12-18T17:09:39;2.63;;;2.42;;
16099;SDS011;8154;50.830;12.082;2022-12-18T17:12:24;2.70;;;2.50;;
16099;SDS011;8154;50.830;12.082;2022-12-18T17:15:11;2.60;;;2.40;;
16099;SDS011;8154;50.830;12.082;2022-12-18T17:17:55;2.88;;;2.63;;
16099;SDS011;8154;50.830;12.082;2022-12-18T17:20:42;2.83;;;2.63;;
16099;SDS011;8154;50.830;12.082;2022-12-18T17:23:31;2.90;;;2.70;;
16099;SDS011;8154;50.830;12.082;2022-12-18T17:26:40;2.67;;;2.47;;
16099;SDS011;8154;50.830;12.082;2022-12-18T17:29:25;2.80;;;2.60;;
16099;SDS011;8154;50.830;12.082;2022-12-18T17:32:10;2.88;;;2.67;;
16099;SDS011;8154;50.830;12.082;2022-12-18T17:34:56;2.88;;;2.67;;
16099;SDS011;8154;50.830;12.082;2022-12-18T17:37:40;2.90;;;2.70;;
16099;SDS011;8154;50.830;12.082;2022-12-18T17:40:25;3.22;;;2.92;;
16099;SDS011;8154;50.830;12.082;2022-12-18T17:43:13;2.67;;;2.47;;
16099;SDS011;8154;50.830;12.082;2022-12-18T17:46:04;2.70;;;2.50;;
16099;SDS011;8154;50.830;12.082;2022-12-18T17:48:49;2.78;;;2.58;;
16099;SDS011;8154;50.830;12.082;2022-12-18T17:51:34;2.80;;;2.60;;
16099;SDS011;8154;50.830;12.082;2022-12-18T17:54:19;2.70;;;2.50;;
16099;SDS011;8154;50.830;12.082;2022-12-18T17:57:04;3.22;;;2.92;;
16099;SDS011;8154;50.830;12.082;2022-12-18T17:59:49;2.70;;;2.50;;
16099;SDS011;8154;50.830;12.082;2022-12-18T18:02:37;2.65;;;2.45;;
16099;SDS011;8154;50.830;12.082;2022-12-18T18:05:22;2.80;;;2.60;;
16099;SDS011;8154;50.830;12.082;2022-12-18T18:08:07;2.78;;;2.58;;
16099;SDS011;8154;50.830;12.082;2022-12-18T18:10:54;2.83;;;2.63;;
16099;SDS011;8154;50.830;12.082;2022-12-18T18:14:03;2.90;;;2.70;;
16099;SDS011;8154;50.830;12.082;2022-12-18T18:16:50;2.80;;;2.60;;
16099;SDS011;8154;50.830;12.082;2022-12-18T18:19:37;2.70;;;2.50;;
16099;SDS011;8154;50.830;12.082;2022-12-18T18:22:21;2.60;;;2.40;;
16099;SDS011;8154;50.830;12.082;2022-12-18T18:25:06;2.60;;;2.40;;
16099;SDS011;8154;50.830;12.082;2022-12-18T18:27:50;2.65;;;2.45;;
16099;SDS011;8154;50.830;12.082;2022-12-18T18:30:40;2.67;;;2.47;;
16099;SDS011;8154;50.830;12.082;2022-12-18T18:33:25;2.67;;;2.47;;
16099;SDS011;8154;50.830;12.082;2022-12-18T18:36:11;3.08;;;2.83;;
16099;SDS011;8154;50.830;12.082;2022-12-18T18:38:58;2.70;;;2.50;;
16099;SDS011;8154;50.830;12.082;2022-12-18T18:41:44;2.70;;;2.50;;
16099;SDS011;8154;50.830;12.082;2022-12-18T18:44:31;2.72;;;2.53;;
16099;SDS011;8154;50.830;12.082;2022-12-18T18:47:15;2.75;;;2.55;;
16099;SDS011;8154;50.830;12.082;2022-12-18T18:50:00;2.72;;;2.53;;
16099;SDS011;8154;50.830;12.082;2022-12-18T18:52:45;2.60;;;2.40;;
16099;SDS011;8154;50.830;12.082;2022-12-18T18:55:31;2.45;;;2.25;;